sensor_id;sensor_type;location;lat;lon;timestamp;P1;durP1;ratioP1;P2;durP2;ratioP2
85102;SDS011;75452;44.106;3.074;2024-01-15T00:01:07;11.68;;;10.50;;
85102;SDS011;75452;44.106;3.074;2024-01-15T00:03:32;11.95;;;10.75;;
85102;SDS011;75452;44.106;3.074;2024-01-15T00:05:58;12.35;;;11.05;;
85102;SDS011;75452;44.106;3.074;2024-01-15T00:08:23;12.07;;;10.82;;
85102;SDS011;75452;44.106;3.074;2024-01-15T00:10:49;11.63;;;10.48;;
85102;SDS011;75452;44.106;3.074;2024-01-15T00:13:14;12.75;;;11.30;;
85102;SDS011;75452;44.106;3.074;2024-01-15T00:15:39;11.95;;;10.75;;
85102;SDS011;75452;44.106;3.074;2024-01-15T00:18:05;11.73;;;10.52;;
85102;SDS011;75452;44.106;3.074;2024-01-15T00:20:31;11.40;;;10.30;;
85102;SDS011;75452;44.106;3.074;2024-01-15T00:22:56;12.18;;;10.98;;
85102;SDS011;75452;44.106;3.074;2024-01-15T00:25:21;12.00;;;10.80;;
85102;SDS011;75452;44.106;3.074;2024-01-15T00:27:47;12.55;;;11.25;;
85102;SDS011;75452;44.106;3.074;2024-01-15T00:30:13;11.55;;;10.35;;
85102;SDS011;75452;44.106;3.074;2024-01-15T00:32:38;12.55;;;11.05;;
85102;SDS011;75452;44.106;3.074;2024-01-15T00:35:04;12.30;;;11.00;;
85102;SDS011;75452;44.106;3.074;2024-01-15T00:37:29;11.32;;;10.13;;
85102;SDS011;75452;44.106;3.074;2024-01-15T00:39:55;10.63;;;9.57;;
85102;SDS011;75452;44.106;3.074;2024-01-15T00:42:20;11.80;;;10.55;;
85102;SDS011;75452;44.106;3.074;2024-01-15T00:44:46;10.98;;;9.88;;
85102;SDS011;75452;44.106;3.074;2024-01-15T00:47:11;10.82;;;9.73;;
85102;SDS011;75452;44.106;3.074;2024-01-15T00:49:37;11.70;;;10.50;;
85102;SDS011;75452;44.106;3.074;2024-01-15T00:52:02;10.60;;;9.50;;
85102;SDS011;75452;44.106;3.074;2024-01-15T00:54:28;11.25;;;10.25;;
85102;SDS011;75452;44.106;3.074;2024-01-15T00:56:53;9.93;;;8.98;;
85102;SDS011;75452;44.106;3.074;2024-01-15T00:59:19;11.07;;;9.90;;
85102;SDS011;75452;44.106;3.074;2024-01-15T01:01:45;9.90;;;8.90;;
85102;SDS011;75452;44.106;3.074;2024-01-15T01:04:11;10.20;;;9.20;;
85102;SDS011;75452;44.106;3.074;2024-01-15T01:06:37;10.30;;;9.30;;
85102;SDS011;75452;44.106;3.074;2024-01-15T01:09:02;9.75;;;8.85;;
85102;SDS011;75452;44.106;3.074;2024-01-15T01:11:28;8.40;;;7.70;;
85102;SDS011;75452;44.106;3.074;2024-01-15T01:13:53;10.43;;;9.43;;
85102;SDS011;75452;44.106;3.074;2024-01-15T01:16:19;9.95;;;8.98;;
85102;SDS011;75452;44.106;3.074;2024-01-15T01:18:44;9.50;;;8.60;;
85102;SDS011;75452;44.106;3.074;2024-01-15T01:21:10;9.48;;;8.48;;
85102;SDS011;75452;44.106;3.074;2024-01-15T01:23:35;9.57;;;8.57;;
85102;SDS011;75452;44.106;3.074;2024-01-15T01:26:00;10.15;;;9.20;;
85102;SDS011;75452;44.106;3.074;2024-01-15T01:28:26;10.35;;;9.23;;
85102;SDS011;75452;44.106;3.074;2024-01-15T01:30:51;9.30;;;8.40;;
85102;SDS011;75452;44.106;3.074;2024-01-15T01:33:16;8.95;;;8.20;;
85102;SDS011;75452;44.106;3.074;2024-01-15T01:35:42;9.57;;;8.73;;
85102;SDS011;75452;44.106;3.074;2024-01-15T01:38:08;9.85;;;8.82;;
85102;SDS011;75452;44.106;3.074;2024-01-15T01:40:34;8.55;;;7.75;;
85102;SDS011;75452;44.106;3.074;2024-01-15T01:42:59;8.23;;;7.45;;
85102;SDS011;75452;44.106;3.074;2024-01-15T01:45:24;8.88;;;8.07;;
85102;SDS011;75452;44.106;3.074;2024-01-15T01:47:50;8.95;;;8.05;;
85102;SDS011;75452;44.106;3.074;2024-01-15T01:50:15;9.00;;;8.27;;
85102;SDS011;75452;44.106;3.074;2024-01-15T01:52:41;8.52;;;7.82;;
85102;SDS011;75452;44.106;3.074;2024-01-15T01:55:06;8.32;;;7.57;;
85102;SDS011;75452;44.106;3.074;2024-01-15T01:57:33;8.13;;;7.35;;
85102;SDS011;75452;44.106;3.074;2024-01-15T02:00:00;7.82;;;7.13;;
85102;SDS011;75452;44.106;3.074;2024-01-15T02:02:26;7.78;;;7.15;;
85102;SDS011;75452;44.106;3.074;2024-01-15T02:04:52;8.77;;;7.93;;
85102;SDS011;75452;44.106;3.074;2024-01-15T02:07:17;7.15;;;6.53;;
85102;SDS011;75452;44.106;3.074;2024-01-15T02:09:43;8.40;;;7.60;;
85102;SDS011;75452;44.106;3.074;2024-01-15T02:12:09;7.90;;;7.10;;
85102;SDS011;75452;44.106;3.074;2024-01-15T02:14:35;7.95;;;7.22;;
85102;SDS011;75452;44.106;3.074;2024-01-15T02:17:00;8.02;;;7.32;;
85102;SDS011;75452;44.106;3.074;2024-01-15T02:19:26;8.40;;;7.70;;
85102;SDS011;75452;44.106;3.074;2024-01-15T02:21:51;8.00;;;7.22;;
85102;SDS011;75452;44.106;3.074;2024-01-15T02:24:16;7.10;;;6.50;;
85102;SDS011;75452;44.106;3.074;2024-01-15T02:26:42;7.88;;;7.07;;
85102;SDS011;75452;44.106;3.074;2024-01-15T02:29:07;7.80;;;7.10;;
85102;SDS011;75452;44.106;3.074;2024-01-15T02:31:36;7.43;;;6.80;;
85102;SDS011;75452;44.106;3.074;2024-01-15T02:34:01;7.25;;;6.55;;
85102;SDS011;75452;44.106;3.074;2024-01-15T02:36:27;7.20;;;6.57;;
85102;SDS011;75452;44.106;3.074;2024-01-15T02:38:52;7.43;;;6.82;;
85102;SDS011;75452;44.106;3.074;2024-01-15T02:41:17;7.38;;;6.78;;
85102;SDS011;75452;44.106;3.074;2024-01-15T02:43:43;7.63;;;6.78;;
85102;SDS011;75452;44.106;3.074;2024-01-15T02:46:09;7.22;;;6.53;;
85102;SDS011;75452;44.106;3.074;2024-01-15T02:48:34;6.03;;;5.53;;
85102;SDS011;75452;44.106;3.074;2024-01-15T02:51:02;6.88;;;6.28;;
85102;SDS011;75452;44.106;3.074;2024-01-15T02:53:28;7.00;;;6.32;;
85102;SDS011;75452;44.106;3.074;2024-01-15T02:55:53;6.70;;;6.05;;
85102;SDS011;75452;44.106;3.074;2024-01-15T02:58:19;6.25;;;5.75;;
85102;SDS011;75452;44.106;3.074;2024-01-15T03:00:44;6.82;;;6.22;;
85102;SDS011;75452;44.106;3.074;2024-01-15T03:03:11;6.70;;;6.10;;
85102;SDS011;75452;44.106;3.074;2024-01-15T03:05:37;7.93;;;5.95;;
85102;SDS011;75452;44.106;3.074;2024-01-15T03:08:04;6.30;;;5.70;;
85102;SDS011;75452;44.106;3.074;2024-01-15T03:10:30;6.72;;;6.15;;
85102;SDS011;75452;44.106;3.074;2024-01-15T03:12:55;6.88;;;6.25;;
85102;SDS011;75452;44.106;3.074;2024-01-15T03:15:20;6.80;;;6.03;;
85102;SDS011;75452;44.106;3.074;2024-01-15T03:17:46;6.55;;;5.97;;
85102;SDS011;75452;44.106;3.074;2024-01-15T03:20:11;6.05;;;5.45;;
85102;SDS011;75452;44.106;3.074;2024-01-15T03:22:37;6.00;;;5.50;;
85102;SDS011;75452;44.106;3.074;2024-01-15T03:25:03;5.63;;;5.13;;
85102;SDS011;75452;44.106;3.074;2024-01-15T03:27:29;5.93;;;5.43;;
85102;SDS011;75452;44.106;3.074;2024-01-15T03:29:54;5.90;;;5.40;;
85102;SDS011;75452;44.106;3.074;2024-01-15T03:32:20;6.00;;;5.40;;
85102;SDS011;75452;44.106;3.074;2024-01-15T03:34:45;6.03;;;5.57;;
85102;SDS011;75452;44.106;3.074;2024-01-15T03:37:12;6.15;;;5.50;;
85102;SDS011;75452;44.106;3.074;2024-01-15T03:39:38;5.55;;;5.05;;
85102;SDS011;75452;44.106;3.074;2024-01-15T03:42:03;6.03;;;5.53;;
85102;SDS011;75452;44.106;3.074;2024-01-15T03:44:29;5.28;;;4.88;;
85102;SDS011;75452;44.106;3.074;2024-01-15T03:46:54;5.80;;;5.30;;
85102;SDS011;75452;44.106;3.074;2024-01-15T03:49:20;5.45;;;5.05;;
85102;SDS011;75452;44.106;3.074;2024-01-15T03:51:45;5.53;;;5.03;;
85102;SDS011;75452;44.106;3.074;2024-01-15T03:54:10;6.18;;;5.57;;
85102;SDS011;75452;44.106;3.074;2024-01-15T03:56:36;5.80;;;5.30;;
85102;SDS011;75452;44.106;3.074;2024-01-15T03:59:01;4.95;;;4.55;;
85102;SDS011;75452;44.106;3.074;2024-01-15T04:01:26;5.82;;;5.32;;
85102;SDS011;75452;44.106;3.074;2024-01-15T04:03:52;4.97;;;4.68;;
85102;SDS011;75452;44.106;3.074;2024-01-15T04:06:17;4.68;;;4.28;;
85102;SDS011;75452;44.106;3.074;2024-01-15T04:08:43;5.32;;;4.93;;
85102;SDS011;75452;44.106;3.074;2024-01-15T04:11:08;5.70;;;5.25;;
85102;SDS011;75452;44.106;3.074;2024-01-15T04:13:33;5.35;;;4.95;;
85102;SDS011;75452;44.106;3.074;2024-01-15T04:15:59;5.35;;;4.75;;
85102;SDS011;75452;44.106;3.074;2024-01-15T04:18:25;5.28;;;4.88;;
85102;SDS011;75452;44.106;3.074;2024-01-15T04:20:50;5.30;;;4.90;;
85102;SDS011;75452;44.106;3.074;2024-01-15T04:23:16;5.63;;;5.13;;
85102;SDS011;75452;44.106;3.074;2024-01-15T04:25:41;5.10;;;4.70;;
85102;SDS011;75452;44.106;3.074;2024-01-15T04:28:08;4.60;;;4.20;;
85102;SDS011;75452;44.106;3.074;2024-01-15T04:30:33;5.53;;;5.10;;
85102;SDS011;75452;44.106;3.074;2024-01-15T04:32:59;5.28;;;4.88;;
85102;SDS011;75452;44.106;3.074;2024-01-15T04:35:24;5.35;;;4.95;;
85102;SDS011;75452;44.106;3.074;2024-01-15T04:37:50;5.03;;;4.65;;
85102;SDS011;75452;44.106;3.074;2024-01-15T04:40:15;5.13;;;4.72;;
85102;SDS011;75452;44.106;3.074;2024-01-15T04:42:40;5.20;;;4.80;;
85102;SDS011;75452;44.106;3.074;2024-01-15T04:45:06;5.10;;;4.80;;
85102;SDS011;75452;44.106;3.074;2024-01-15T04:47:31;5.15;;;4.75;;
85102;SDS011;75452;44.106;3.074;2024-01-15T04:49:57;5.15;;;4.75;;
85102;SDS011;75452;44.106;3.074;2024-01-15T04:52:22;5.22;;;4.82;;
85102;SDS011;75452;44.106;3.074;2024-01-15T04:54:48;5.13;;;4.72;;
85102;SDS011;75452;44.106;3.074;2024-01-15T04:57:14;5.28;;;4.88;;
85102;SDS011;75452;44.106;3.074;2024-01-15T04:59:40;4.78;;;4.40;;
85102;SDS011;75452;44.106;3.074;2024-01-15T05:02:05;5.20;;;4.80;;
85102;SDS011;75452;44.106;3.074;2024-01-15T05:04:30;5.05;;;4.65;;
85102;SDS011;75452;44.106;3.074;2024-01-15T05:06:56;5.00;;;4.60;;
85102;SDS011;75452;44.106;3.074;2024-01-15T05:09:21;4.93;;;4.53;;
85102;SDS011;75452;44.106;3.074;2024-01-15T05:11:47;5.13;;;4.72;;
85102;SDS011;75452;44.106;3.074;2024-01-15T05:14:12;4.90;;;4.50;;
85102;SDS011;75452;44.106;3.074;2024-01-15T05:16:38;4.95;;;4.55;;
85102;SDS011;75452;44.106;3.074;2024-01-15T05:19:04;4.93;;;4.60;;
85102;SDS011;75452;44.106;3.074;2024-01-15T05:21:29;4.32;;;4.03;;
85102;SDS011;75452;44.106;3.074;2024-01-15T05:23:54;4.93;;;4.53;;
85102;SDS011;75452;44.106;3.074;2024-01-15T05:26:20;5.35;;;4.93;;
85102;SDS011;75452;44.106;3.074;2024-01-15T05:28:45;4.90;;;4.50;;
85102;SDS011;75452;44.106;3.074;2024-01-15T05:31:10;4.82;;;4.43;;
85102;SDS011;75452;44.106;3.074;2024-01-15T05:33:37;5.00;;;4.60;;
85102;SDS011;75452;44.106;3.074;2024-01-15T05:36:02;5.38;;;4.97;;
85102;SDS011;75452;44.106;3.074;2024-01-15T05:38:28;3.95;;;3.67;;
85102;SDS011;75452;44.106;3.074;2024-01-15T05:40:53;4.32;;;4.03;;
85102;SDS011;75452;44.106;3.074;2024-01-15T05:43:19;4.78;;;4.38;;
85102;SDS011;75452;44.106;3.074;2024-01-15T05:45:44;4.63;;;4.30;;
85102;SDS011;75452;44.106;3.074;2024-01-15T05:48:10;4.45;;;4.15;;
85102;SDS011;75452;44.106;3.074;2024-01-15T05:50:36;4.25;;;3.95;;
85102;SDS011;75452;44.106;3.074;2024-01-15T05:53:01;4.30;;;4.00;;
85102;SDS011;75452;44.106;3.074;2024-01-15T05:55:27;4.47;;;4.18;;
85102;SDS011;75452;44.106;3.074;2024-01-15T05:57:53;4.00;;;3.78;;
85102;SDS011;75452;44.106;3.074;2024-01-15T06:00:18;4.20;;;3.90;;
85102;SDS011;75452;44.106;3.074;2024-01-15T06:02:43;4.68;;;4.35;;
85102;SDS011;75452;44.106;3.074;2024-01-15T06:05:09;4.72;;;4.40;;
85102;SDS011;75452;44.106;3.074;2024-01-15T06:07:34;4.30;;;3.95;;
85102;SDS011;75452;44.106;3.074;2024-01-15T06:10:00;4.47;;;4.15;;
85102;SDS011;75452;44.106;3.074;2024-01-15T06:12:26;4.68;;;4.30;;
85102;SDS011;75452;44.106;3.074;2024-01-15T06:14:53;4.50;;;4.20;;
85102;SDS011;75452;44.106;3.074;2024-01-15T06:17:18;4.60;;;4.20;;
85102;SDS011;75452;44.106;3.074;2024-01-15T06:19:43;4.43;;;4.13;;
85102;SDS011;75452;44.106;3.074;2024-01-15T06:22:09;4.32;;;3.97;;
85102;SDS011;75452;44.106;3.074;2024-01-15T06:24:34;4.63;;;4.22;;
85102;SDS011;75452;44.106;3.074;2024-01-15T06:27:00;4.97;;;4.65;;
85102;SDS011;75452;44.106;3.074;2024-01-15T06:29:25;4.22;;;3.92;;
85102;SDS011;75452;44.106;3.074;2024-01-15T06:31:51;4.45;;;4.13;;
85102;SDS011;75452;44.106;3.074;2024-01-15T06:34:17;4.68;;;4.32;;
85102;SDS011;75452;44.106;3.074;2024-01-15T06:36:42;4.80;;;4.50;;
85102;SDS011;75452;44.106;3.074;2024-01-15T06:39:08;4.70;;;4.30;;
85102;SDS011;75452;44.106;3.074;2024-01-15T06:41:35;5.05;;;4.65;;
85102;SDS011;75452;44.106;3.074;2024-01-15T06:44:02;4.78;;;4.38;;
85102;SDS011;75452;44.106;3.074;2024-01-15T06:46:28;5.32;;;4.78;;
85102;SDS011;75452;44.106;3.074;2024-01-15T06:48:53;4.88;;;4.47;;
85102;SDS011;75452;44.106;3.074;2024-01-15T06:51:19;4.90;;;4.55;;
85102;SDS011;75452;44.106;3.074;2024-01-15T06:53:44;5.32;;;4.93;;
85102;SDS011;75452;44.106;3.074;2024-01-15T06:56:10;5.05;;;4.65;;
85102;SDS011;75452;44.106;3.074;2024-01-15T06:58:35;4.60;;;4.30;;
85102;SDS011;75452;44.106;3.074;2024-01-15T07:01:01;4.75;;;4.45;;
85102;SDS011;75452;44.106;3.074;2024-01-15T07:03:27;5.07;;;4.68;;
85102;SDS011;75452;44.106;3.074;2024-01-15T07:05:52;4.90;;;4.50;;
85102;SDS011;75452;44.106;3.074;2024-01-15T07:08:18;5.72;;;5.22;;
85102;SDS011;75452;44.106;3.074;2024-01-15T07:10:43;5.95;;;5.50;;
85102;SDS011;75452;44.106;3.074;2024-01-15T07:13:08;6.80;;;6.07;;
85102;SDS011;75452;44.106;3.074;2024-01-15T07:15:34;6.20;;;5.72;;
85102;SDS011;75452;44.106;3.074;2024-01-15T07:17:59;6.38;;;5.88;;
85102;SDS011;75452;44.106;3.074;2024-01-15T07:20:25;5.95;;;5.25;;
85102;SDS011;75452;44.106;3.074;2024-01-15T07:22:50;7.20;;;6.57;;
85102;SDS011;75452;44.106;3.074;2024-01-15T07:25:16;8.05;;;6.85;;
85102;SDS011;75452;44.106;3.074;2024-01-15T07:27:41;6.35;;;5.85;;
85102;SDS011;75452;44.106;3.074;2024-01-15T07:30:09;7.00;;;6.40;;
85102;SDS011;75452;44.106;3.074;2024-01-15T07:32:38;6.20;;;5.57;;
85102;SDS011;75452;44.106;3.074;2024-01-15T07:35:03;5.95;;;5.45;;
85102;SDS011;75452;44.106;3.074;2024-01-15T07:37:30;5.47;;;5.07;;
85102;SDS011;75452;44.106;3.074;2024-01-15T07:39:55;6.32;;;5.82;;
85102;SDS011;75452;44.106;3.074;2024-01-15T07:42:20;6.20;;;5.47;;
85102;SDS011;75452;44.106;3.074;2024-01-15T07:44:46;12.30;;;5.22;;
85102;SDS011;75452;44.106;3.074;2024-01-15T07:47:12;5.82;;;5.18;;
85102;SDS011;75452;44.106;3.074;2024-01-15T07:49:37;6.20;;;5.57;;
85102;SDS011;75452;44.106;3.074;2024-01-15T07:52:03;5.63;;;5.22;;
85102;SDS011;75452;44.106;3.074;2024-01-15T07:54:30;6.07;;;5.47;;
85102;SDS011;75452;44.106;3.074;2024-01-15T07:56:56;5.88;;;5.38;;
85102;SDS011;75452;44.106;3.074;2024-01-15T07:59:23;6.38;;;5.88;;
85102;SDS011;75452;44.106;3.074;2024-01-15T08:01:49;9.18;;;5.45;;
85102;SDS011;75452;44.106;3.074;2024-01-15T08:04:15;5.88;;;5.43;;
85102;SDS011;75452;44.106;3.074;2024-01-15T08:06:40;9.30;;;5.65;;
85102;SDS011;75452;44.106;3.074;2024-01-15T08:09:06;8.32;;;5.47;;
85102;SDS011;75452;44.106;3.074;2024-01-15T08:11:32;7.15;;;4.78;;
85102;SDS011;75452;44.106;3.074;2024-01-15T08:13:57;6.25;;;5.30;;
85102;SDS011;75452;44.106;3.074;2024-01-15T08:16:23;5.80;;;5.30;;
85102;SDS011;75452;44.106;3.074;2024-01-15T08:18:50;7.15;;;6.45;;
85102;SDS011;75452;44.106;3.074;2024-01-15T08:21:15;7.00;;;6.32;;
85102;SDS011;75452;44.106;3.074;2024-01-15T08:23:40;8.00;;;7.22;;
85102;SDS011;75452;44.106;3.074;2024-01-15T08:26:07;6.97;;;6.32;;
85102;SDS011;75452;44.106;3.074;2024-01-15T08:28:32;6.75;;;6.05;;
85102;SDS011;75452;44.106;3.074;2024-01-15T08:30:57;8.05;;;6.50;;
85102;SDS011;75452;44.106;3.074;2024-01-15T08:33:23;9.07;;;6.82;;
85102;SDS011;75452;44.106;3.074;2024-01-15T08:35:48;7.20;;;6.35;;
85102;SDS011;75452;44.106;3.074;2024-01-15T08:38:14;6.43;;;5.85;;
85102;SDS011;75452;44.106;3.074;2024-01-15T08:40:39;6.68;;;6.13;;
85102;SDS011;75452;44.106;3.074;2024-01-15T08:43:04;6.00;;;5.50;;
85102;SDS011;75452;44.106;3.074;2024-01-15T08:45:31;6.13;;;5.63;;
85102;SDS011;75452;44.106;3.074;2024-01-15T08:47:57;6.50;;;5.90;;
85102;SDS011;75452;44.106;3.074;2024-01-15T08:50:22;6.55;;;5.80;;
85102;SDS011;75452;44.106;3.074;2024-01-15T08:52:48;6.60;;;6.00;;
85102;SDS011;75452;44.106;3.074;2024-01-15T08:55:13;6.97;;;6.20;;
85102;SDS011;75452;44.106;3.074;2024-01-15T08:57:38;6.47;;;5.75;;
85102;SDS011;75452;44.106;3.074;2024-01-15T09:00:04;6.80;;;6.20;;
85102;SDS011;75452;44.106;3.074;2024-01-15T09:02:33;6.40;;;5.90;;
85102;SDS011;75452;44.106;3.074;2024-01-15T09:04:59;6.50;;;5.07;;
85102;SDS011;75452;44.106;3.074;2024-01-15T09:07:24;7.20;;;6.50;;
85102;SDS011;75452;44.106;3.074;2024-01-15T09:09:51;7.20;;;6.47;;
85102;SDS011;75452;44.106;3.074;2024-01-15T09:12:16;6.80;;;6.20;;
85102;SDS011;75452;44.106;3.074;2024-01-15T09:14:43;7.22;;;6.63;;
85102;SDS011;75452;44.106;3.074;2024-01-15T09:17:09;8.25;;;6.63;;
85102;SDS011;75452;44.106;3.074;2024-01-15T09:19:34;7.75;;;7.03;;
85102;SDS011;75452;44.106;3.074;2024-01-15T09:22:00;7.78;;;7.10;;
85102;SDS011;75452;44.106;3.074;2024-01-15T09:24:25;6.40;;;5.90;;
85102;SDS011;75452;44.106;3.074;2024-01-15T09:26:51;6.47;;;5.95;;
85102;SDS011;75452;44.106;3.074;2024-01-15T09:29:16;7.05;;;6.45;;
85102;SDS011;75452;44.106;3.074;2024-01-15T09:31:43;7.53;;;6.53;;
85102;SDS011;75452;44.106;3.074;2024-01-15T09:34:08;7.55;;;6.95;;
85102;SDS011;75452;44.106;3.074;2024-01-15T09:36:38;8.25;;;7.05;;
85102;SDS011;75452;44.106;3.074;2024-01-15T09:39:05;6.82;;;6.22;;
85102;SDS011;75452;44.106;3.074;2024-01-15T09:41:33;6.70;;;6.10;;
85102;SDS011;75452;44.106;3.074;2024-01-15T09:44:00;7.88;;;7.07;;
85102;SDS011;75452;44.106;3.074;2024-01-15T09:46:27;6.95;;;6.28;;
85102;SDS011;75452;44.106;3.074;2024-01-15T09:48:52;8.10;;;6.53;;
85102;SDS011;75452;44.106;3.074;2024-01-15T09:51:18;7.03;;;6.43;;
85102;SDS011;75452;44.106;3.074;2024-01-15T09:53:45;6.13;;;5.63;;
85102;SDS011;75452;44.106;3.074;2024-01-15T09:56:11;6.22;;;5.60;;
85102;SDS011;75452;44.106;3.074;2024-01-15T09:58:37;7.28;;;6.57;;
85102;SDS011;75452;44.106;3.074;2024-01-15T10:01:04;6.97;;;6.35;;
85102;SDS011;75452;44.106;3.074;2024-01-15T10:03:29;8.15;;;7.35;;
85102;SDS011;75452;44.106;3.074;2024-01-15T10:05:55;6.10;;;5.60;;
85102;SDS011;75452;44.106;3.074;2024-01-15T10:08:23;7.22;;;6.55;;
85102;SDS011;75452;44.106;3.074;2024-01-15T10:10:49;6.85;;;6.15;;
85102;SDS011;75452;44.106;3.074;2024-01-15T10:13:15;8.15;;;7.20;;
85102;SDS011;75452;44.106;3.074;2024-01-15T10:15:40;7.80;;;7.10;;
85102;SDS011;75452;44.106;3.074;2024-01-15T10:18:07;7.50;;;6.88;;
85102;SDS011;75452;44.106;3.074;2024-01-15T10:20:33;6.88;;;6.18;;
85102;SDS011;75452;44.106;3.074;2024-01-15T10:22:58;6.43;;;6.00;;
85102;SDS011;75452;44.106;3.074;2024-01-15T10:25:24;7.18;;;6.40;;
85102;SDS011;75452;44.106;3.074;2024-01-15T10:28:08;8.35;;;6.75;;
85102;SDS011;75452;44.106;3.074;2024-01-15T10:30:34;7.95;;;7.15;;
85102;SDS011;75452;44.106;3.074;2024-01-15T10:33:01;7.13;;;6.43;;
85102;SDS011;75452;44.106;3.074;2024-01-15T10:35:30;8.07;;;6.82;;
85102;SDS011;75452;44.106;3.074;2024-01-15T10:37:56;6.80;;;6.20;;
85102;SDS011;75452;44.106;3.074;2024-01-15T10:40:22;7.68;;;7.07;;
85102;SDS011;75452;44.106;3.074;2024-01-15T10:42:48;6.72;;;6.00;;
85102;SDS011;75452;44.106;3.074;2024-01-15T10:45:13;6.45;;;5.85;;
85102;SDS011;75452;44.106;3.074;2024-01-15T10:47:39;7.28;;;6.57;;
85102;SDS011;75452;44.106;3.074;2024-01-15T10:50:06;7.35;;;6.65;;
85102;SDS011;75452;44.106;3.074;2024-01-15T10:52:33;6.97;;;6.38;;
85102;SDS011;75452;44.106;3.074;2024-01-15T10:54:59;8.25;;;6.57;;
85102;SDS011;75452;44.106;3.074;2024-01-15T10:57:25;8.23;;;6.35;;
85102;SDS011;75452;44.106;3.074;2024-01-15T10:59:51;6.70;;;6.05;;
85102;SDS011;75452;44.106;3.074;2024-01-15T11:02:16;6.75;;;6.15;;
85102;SDS011;75452;44.106;3.074;2024-01-15T11:04:42;6.22;;;5.72;;
85102;SDS011;75452;44.106;3.074;2024-01-15T11:07:07;6.28;;;5.88;;
85102;SDS011;75452;44.106;3.074;2024-01-15T11:09:33;6.75;;;5.85;;
85102;SDS011;75452;44.106;3.074;2024-01-15T11:12:07;6.40;;;5.90;;
85102;SDS011;75452;44.106;3.074;2024-01-15T11:14:47;6.25;;;5.68;;
85102;SDS011;75452;44.106;3.074;2024-01-15T11:17:14;5.90;;;5.38;;
85102;SDS011;75452;44.106;3.074;2024-01-15T11:25:02;6.20;;;5.70;;
85102;SDS011;75452;44.106;3.074;2024-01-15T11:30:12;17.38;;;6.07;;
85102;SDS011;75452;44.106;3.074;2024-01-15T11:32:38;7.00;;;6.13;;
85102;SDS011;75452;44.106;3.074;2024-01-15T11:35:07;6.68;;;5.80;;
85102;SDS011;75452;44.106;3.074;2024-01-15T11:40:20;6.63;;;6.07;;
85102;SDS011;75452;44.106;3.074;2024-01-15T11:42:46;9.30;;;5.47;;
85102;SDS011;75452;44.106;3.074;2024-01-15T11:45:12;5.15;;;4.68;;
85102;SDS011;75452;44.106;3.074;2024-01-15T11:50:29;6.50;;;5.90;;
85102;SDS011;75452;44.106;3.074;2024-01-15T11:52:59;5.30;;;4.90;;
85102;SDS011;75452;44.106;3.074;2024-01-15T11:58:01;6.15;;;5.07;;
85102;SDS011;75452;44.106;3.074;2024-01-15T12:00:28;5.75;;;5.25;;
85102;SDS011;75452;44.106;3.074;2024-01-15T12:02:53;5.28;;;4.78;;
85102;SDS011;75452;44.106;3.074;2024-01-15T12:05:19;5.90;;;5.40;;
85102;SDS011;75452;44.106;3.074;2024-01-15T12:07:45;5.43;;;4.93;;
85102;SDS011;75452;44.106;3.074;2024-01-15T12:10:16;6.47;;;5.97;;
85102;SDS011;75452;44.106;3.074;2024-01-15T12:12:59;5.80;;;5.35;;
85102;SDS011;75452;44.106;3.074;2024-01-15T12:15:27;5.60;;;5.13;;
85102;SDS011;75452;44.106;3.074;2024-01-15T12:17:57;6.20;;;5.70;;
85102;SDS011;75452;44.106;3.074;2024-01-15T12:20:27;5.93;;;5.43;;
85102;SDS011;75452;44.106;3.074;2024-01-15T12:22:53;6.00;;;5.53;;
85102;SDS011;75452;44.106;3.074;2024-01-15T12:25:20;5.75;;;5.25;;
85102;SDS011;75452;44.106;3.074;2024-01-15T12:27:46;8.68;;;5.57;;
85102;SDS011;75452;44.106;3.074;2024-01-15T12:30:13;5.80;;;5.40;;
85102;SDS011;75452;44.106;3.074;2024-01-15T12:32:42;6.00;;;5.50;;
85102;SDS011;75452;44.106;3.074;2024-01-15T12:35:08;5.57;;;5.07;;
85102;SDS011;75452;44.106;3.074;2024-01-15T12:37:39;5.35;;;4.95;;
85102;SDS011;75452;44.106;3.074;2024-01-15T12:40:05;5.07;;;4.68;;
85102;SDS011;75452;44.106;3.074;2024-01-15T12:42:44;5.75;;;5.35;;
85102;SDS011;75452;44.106;3.074;2024-01-15T12:45:09;5.75;;;5.25;;
85102;SDS011;75452;44.106;3.074;2024-01-15T12:47:36;5.35;;;4.95;;
85102;SDS011;75452;44.106;3.074;2024-01-15T12:50:01;4.85;;;4.40;;
85102;SDS011;75452;44.106;3.074;2024-01-15T12:52:27;5.72;;;5.22;;
85102;SDS011;75452;44.106;3.074;2024-01-15T12:54:53;5.35;;;4.95;;
85102;SDS011;75452;44.106;3.074;2024-01-15T12:57:19;6.35;;;5.03;;
85102;SDS011;75452;44.106;3.074;2024-01-15T12:59:44;5.32;;;4.88;;
85102;SDS011;75452;44.106;3.074;2024-01-15T13:02:13;7.82;;;5.63;;
85102;SDS011;75452;44.106;3.074;2024-01-15T13:04:39;6.00;;;5.38;;
85102;SDS011;75452;44.106;3.074;2024-01-15T13:07:05;5.18;;;4.78;;
85102;SDS011;75452;44.106;3.074;2024-01-15T13:09:31;5.20;;;4.80;;
85102;SDS011;75452;44.106;3.074;2024-01-15T13:11:56;6.05;;;5.45;;
85102;SDS011;75452;44.106;3.074;2024-01-15T13:14:22;5.35;;;4.85;;
85102;SDS011;75452;44.106;3.074;2024-01-15T13:16:47;4.90;;;4.50;;
85102;SDS011;75452;44.106;3.074;2024-01-15T13:19:13;6.43;;;4.90;;
85102;SDS011;75452;44.106;3.074;2024-01-15T13:21:39;5.35;;;4.90;;
85102;SDS011;75452;44.106;3.074;2024-01-15T13:24:05;7.32;;;5.45;;
85102;SDS011;75452;44.106;3.074;2024-01-15T13:26:31;6.28;;;5.72;;
85102;SDS011;75452;44.106;3.074;2024-01-15T13:29:01;5.47;;;4.97;;
85102;SDS011;75452;44.106;3.074;2024-01-15T13:31:27;5.70;;;5.20;;
85102;SDS011;75452;44.106;3.074;2024-01-15T13:33:53;5.63;;;4.93;;
85102;SDS011;75452;44.106;3.074;2024-01-15T13:36:20;5.88;;;4.55;;
85102;SDS011;75452;44.106;3.074;2024-01-15T13:38:46;6.00;;;5.40;;
85102;SDS011;75452;44.106;3.074;2024-01-15T13:41:11;7.63;;;5.50;;
85102;SDS011;75452;44.106;3.074;2024-01-15T13:43:37;5.30;;;4.90;;
85102;SDS011;75452;44.106;3.074;2024-01-15T13:46:02;5.13;;;4.72;;
85102;SDS011;75452;44.106;3.074;2024-01-15T13:48:29;5.20;;;4.70;;
85102;SDS011;75452;44.106;3.074;2024-01-15T13:50:56;5.68;;;5.07;;
85102;SDS011;75452;44.106;3.074;2024-01-15T13:53:22;5.70;;;5.13;;
85102;SDS011;75452;44.106;3.074;2024-01-15T13:55:47;5.00;;;4.60;;
85102;SDS011;75452;44.106;3.074;2024-01-15T13:58:13;7.07;;;5.25;;
85102;SDS011;75452;44.106;3.074;2024-01-15T14:00:38;4.40;;;4.10;;
85102;SDS011;75452;44.106;3.074;2024-01-15T14:03:04;5.28;;;4.88;;
85102;SDS011;75452;44.106;3.074;2024-01-15T14:05:30;5.50;;;5.10;;
85102;SDS011;75452;44.106;3.074;2024-01-15T14:07:55;4.78;;;4.38;;
85102;SDS011;75452;44.106;3.074;2024-01-15T14:10:20;5.00;;;4.57;;
85102;SDS011;75452;44.106;3.074;2024-01-15T14:12:46;5.05;;;4.55;;
85102;SDS011;75452;44.106;3.074;2024-01-15T14:15:11;5.13;;;4.03;;
85102;SDS011;75452;44.106;3.074;2024-01-15T14:17:37;4.53;;;4.20;;
85102;SDS011;75452;44.106;3.074;2024-01-15T14:20:03;4.55;;;4.25;;
85102;SDS011;75452;44.106;3.074;2024-01-15T14:22:30;4.50;;;4.20;;
85102;SDS011;75452;44.106;3.074;2024-01-15T14:24:55;4.63;;;4.22;;
85102;SDS011;75452;44.106;3.074;2024-01-15T14:27:21;4.82;;;4.43;;
85102;SDS011;75452;44.106;3.074;2024-01-15T14:29:46;4.93;;;4.28;;
85102;SDS011;75452;44.106;3.074;2024-01-15T14:32:12;5.22;;;4.72;;
85102;SDS011;75452;44.106;3.074;2024-01-15T14:34:37;4.75;;;4.15;;
85102;SDS011;75452;44.106;3.074;2024-01-15T14:37:02;4.28;;;3.97;;
85102;SDS011;75452;44.106;3.074;2024-01-15T14:39:28;4.88;;;4.53;;
85102;SDS011;75452;44.106;3.074;2024-01-15T14:41:53;4.50;;;4.20;;
85102;SDS011;75452;44.106;3.074;2024-01-15T14:44:19;4.75;;;4.35;;
85102;SDS011;75452;44.106;3.074;2024-01-15T14:46:44;4.25;;;3.95;;
85102;SDS011;75452;44.106;3.074;2024-01-15T14:49:11;4.93;;;4.32;;
85102;SDS011;75452;44.106;3.074;2024-01-15T14:51:36;4.03;;;3.72;;
85102;SDS011;75452;44.106;3.074;2024-01-15T14:54:01;3.80;;;3.50;;